Preview of NWS' New Version of Forecast
This preview is not operational and should not be used for support decisions.
Latest weather observations around

Wanoga Butte (HWY 372 MP 17) (ODT31)

Using English Units (Switch to International System of Units)
Date/ Time (PDT) Wind (mph) Vis. (mi) Weather Sky Cond. Temp (°F) Rel. Humidity Wind Chill (°F) Heat Index (°F) Pressure Precip. (in)
Air Dwpt 6 hour Altimeter (inHg) Sea level (inHg) 1 hr 3 hr 6 hr
Max Min
May 19 00:30 SW 8   Clear   34 33     99% 27            
May 19 00:20 W 9   Clear   33 33     99% 26            
May 19 00:10 W 7   Clear   34 33     99% 27            
May 18 23:50 W 8   Clear   34 34     99% 28            
May 18 23:30 W 5   Clear   35 34     99% 30            
May 18 23:20 W 7   Clear   35 34     98% 29            
May 18 23:10 W 8   Clear   35 34     98% 28            
May 18 22:50 W 10   Clear   35 34     98% 27            
May 18 22:30 W 10   Clear   35 34     98% 27            
May 18 22:20 W 9   Clear   35 34     98% 28            
May 18 22:00 SW 8   Clear   35 34     98% 28            
May 18 21:50 W 8   Clear   35 35     98% 29            
May 18 21:40 W 8   Clear   35 35     98% 29            
May 18 21:20 W 9   Clear   36 35     96% 29            
May 18 21:00 W 6   Clear   36 34     95% 31            
May 18 20:50 W 6   Clear   36 34     95% 31            
May 18 20:40 W 8   Clear   36 34     94% 30            
May 18 20:20 SW 8   Clear   36 34     94% 30            
May 18 20:00 W 7   Clear   36 35     94% 31            
May 18 19:50 W 12   Clear   36 34     93% 28            
May 18 19:40 W 9   Clear   36 35     95% 29            
May 18 19:20 W 11   Clear   36 34     93% 29            
May 18 19:00 SW 6   Clear   37 36     96% 32            
May 18 18:50 SW 8   Clear   36 35     96% 30            
May 18 18:40 W 8   Clear   36 35     95% 30            
May 18 18:20 SW 8   Clear   36 35     96% 30            
May 18 18:00 SW 11   Clear   37 35     95% 29            
May 18 17:50 SW 2   Clear   38 36     91%              
May 18 17:40 SW 6   Clear   38 36     91% 34            
May 18 17:20 SW 5   Clear   39 35     88% 35            
May 18 17:10 SW 6   Clear   38 36     90% 34            
May 18 16:50 W 5   Clear   39 34     84% 35            
May 18 16:30 SW 7   Clear   40 34     79% 35            
May 18 16:20 W 11   Clear   41 32     68% 35            
May 18 16:10 W 10   Clear   44 28     54% 38            
May 18 15:50 S 11   Clear   46 24     42% 41            
May 18 15:30 SE 4   Clear   48 25     41% 47            
May 18 15:20 SW 6   Clear   48 25     40% 45            
May 18 15:10 SW 8   Clear   45 29     53% 41            
May 18 14:50 S 3   Clear   46 30     52%              
May 18 14:30     Clear   47 31     55%              
May 18 14:20 SW 4   Clear   45 30     56% 43            
May 18 14:10 SW 4   Clear   43 31     62% 41            
May 18 13:50 SE 4   Clear   45 29     52% 44            
May 18 13:30 SE 3   Clear   46 30     52%              
May 18 13:20 S 3   Clear   47 30     51%              
May 18 13:00 S 5   Clear   46 30     53% 43            
May 18 12:50 S 4   Clear   46 32     56% 45            
May 18 12:40 S 4   Clear   46 31     56% 44            
May 18 12:20 W 4   Clear   45 31     58% 43            
May 18 12:00 SE 3   Clear   45 33     63%              
May 18 11:50 SW 6   Clear   44 31     61% 41            
May 18 11:40 E 4   Clear   45 31     59% 43            
May 18 11:20 SW 8   Clear   43 31     63% 38            
May 18 11:00 S 3   Clear   44 31     61%              
May 18 10:50 SW 7   Clear   42 31     66% 37            
May 18 10:40 SW 4   Clear   41 32     70% 39            
May 18 10:20 W 6   Clear   41 33     73% 37            
May 18 10:00 W 4   Clear   39 34     81% 36            
May 18 09:50 S 4   Clear   39 33     80% 36            
May 18 09:30 S 3   Clear   38 33     82%              
May 18 09:20 SW 6   Clear   36 33     87% 31            
May 18 09:00 W 6   Clear   35 33     93% 29            
May 18 08:50 SW 5   Clear   35 33     94% 30            
May 18 08:30 SW 6   Clear   35 34     94% 30            
May 18 08:20 W 4   Clear   35 34     95% 32            
May 18 08:10 W 5   Clear   35 33     96% 30            
May 18 07:50 W 6   Clear   34 33     97% 29            
May 18 07:30 W 4   Clear   34 33     97% 30            
May 18 07:20 W 5   Clear   34 33     97% 29            
May 18 07:10 W 6   Clear   34 33     98% 28            
May 18 06:50 W 4   Clear   33 33     98% 30            
May 18 06:30 W 6   Clear   33 32     98% 27            
May 18 06:20 W 5   Clear   32 32     98% 28            
May 18 06:00 W 5   Clear   32 31     97% 27            
May 18 05:50 W 7   Clear   32 31     97% 26            
May 18 05:30 W 8   Clear   32 31     96% 25            
May 18 05:20 W 9   Clear   32 31     96% 25            
Notice The following observation data may not be complete
May 18 05:00 W 7   Clear            %              
Notice The following observation data may not be complete
May 18 04:50 W 6   Clear            %              
May 18 04:40 W 6   Clear   32 31     96% 26            
May 18 04:20 W 4   Clear   32 31     97% 28            
Notice The following observation data may not be complete
May 18 04:00 W 4   Clear            %              
May 18 03:50 W 4   Clear   32 32     98% 28            
May 18 03:40 W 3   Clear   32 32     98%              
Notice The following observation data may not be complete
May 18 03:20 W 6   Clear            %              
May 18 03:00 W 4   Clear   32 32     98% 28            
May 18 02:50 W 5   Clear   32 32     97% 28            
May 18 02:40 SW 6   Clear   32 31     96% 27            
May 18 02:20 W 6   Clear   32 32     98% 27            
May 18 02:00 W 7   Clear   33 32     98% 26            
May 18 01:50 SW 6   Clear   33 32     98% 27            
May 18 01:40 W 8   Clear   33 33     98% 26            
May 18 01:20 W 8   Clear   33 33     98% 26            
May 18 01:10 W 6   Clear   33 33     98% 28            
May 18 00:50 W 6   Clear   33 33     98% 28            
May 18 00:30 W 4   Clear   33 33     98% 30            
May 18 00:20 W 7   Clear   33 33     97% 27            
May 18 00:10 W 6   Clear   33 33     97% 28            
May 17 23:50 SW 6   Clear   34 32     94% 28            
May 17 23:30 W 4   Clear   33 32     93% 30            
May 17 23:20 W 4   Clear   33 31     93% 30            
May 17 23:10 W 4   Clear   34 31     91% 30            
May 17 22:50 S 3   Clear   34 32     90%              
May 17 22:30 SW 4   Clear   34 32     91% 31            
May 17 22:20 SW 3   Clear   34 33     93%              
May 17 22:10 W 4   Clear   34 33     95% 31            
May 17 21:50 W 6   Clear   35 33     91% 30            
May 17 21:30 SW 3   Clear   35 32     89%              
May 17 21:20 SW 4   Clear   36 32     87% 32            
May 17 21:00 SW 2   Clear   35 32     89%              
May 17 20:50 SW 5   Clear   36 32     86% 31            
May 17 20:40 SW 1   Clear   36 32     85%              
May 17 20:20 W 8   Clear   36 32     84% 30            
May 17 20:00 W 4   Clear   36 32     86% 32            
May 17 19:50 W 7   Clear   36 32     87% 30            
May 17 19:40 W 8   Clear   36 32     87% 29            
May 17 19:20 W 7   Clear   37 32     83% 31            
May 17 19:00 NW 5   Clear   39 32     75% 35            
May 17 18:50 W 3   Clear   39 32     75%              
May 17 18:40 W 6   Clear   39 31     73% 35            
May 17 18:20 W 9   Clear   38 32     77% 32            
May 17 18:00 NW 8   Clear   39 32     75% 33            
May 17 17:50 NW 6   Clear   39 31     74% 34            
May 17 17:40     Clear   39 31     74%              
May 17 17:20 NW 8   Clear   39 32     74% 34            
May 17 17:10 W 9   Clear   39 32     76% 33            
May 17 16:50 W 9   Clear   38 32     76% 32            
May 17 16:30 W 11   Clear   39 32     74% 32            
May 17 16:20 W 11   Clear   39 32     74% 32            
May 17 16:10 W 10   Clear   39 31     73% 33            
May 17 15:50 W 13   Clear   42 31     63% 36            
May 17 15:30 W 11   Clear   42 30     62% 36            
May 17 15:20 NW 9   Clear   43 30     59% 38            
May 17 15:10 W 8   Clear   43 32     65% 38            
May 17 14:50 NW 10   Clear   40 31     70% 33            
May 17 14:30 W 7   Clear   43 31     62% 39            
May 17 14:20 W 14   Clear   41 29     61% 34            
May 17 14:10 W 11   Clear   43 29     57% 37            
May 17 13:50 W 12   Clear   41 28     59% 34            
May 17 13:40 NW 9   Clear   41 28     59% 36            
May 17 13:20 W 6   Clear   39 32     76% 35            
May 17 13:00 W 4   Clear   40 30     66% 38            
May 17 12:50 NW 7   Clear   38 30     74% 33            
May 17 12:40 W 9   Clear   38 32     76% 32            
May 17 12:20 W 8   Clear   41 28     60% 36            
May 17 12:00 NW 6   Clear   37 34     88% 33            
May 17 11:50 NW 10   Clear   38 31     77% 31            
May 17 11:40 W 11   Clear   38 31     75% 31            
May 17 11:20 W 9   Clear   38 31     75% 32            
May 17 11:10 NW 9   Clear   38 32     78% 32            
May 17 10:50 W 14   Clear   37 30     76% 28            
May 17 10:30 W 11   Clear   38 31     75% 31            
May 17 10:20 W 14   Clear   38 31     77% 29            
May 17 10:00 W 16   Clear   36 31     79% 27            
May 17 09:50 W 13   Clear   36 31     80% 28            
May 17 09:30 W 13   Clear   36 30     78% 27            
May 17 09:20 W 16   Clear   36 30     76% 27            
May 17 09:00 W 16   Clear   36 30     78% 27            
May 17 08:50 NW 13   Clear   37 30     76% 29            
May 17 08:30 W 11   Clear   36 30     79% 28            
May 17 08:20 W 16   Clear   35 29     79% 25            
May 17 08:00 W 12   Clear   35 30     80% 27            
May 17 07:50 W 12   Clear   35 29     79% 27            
May 17 07:30 W 8   Clear   35 28     77% 28            
May 17 07:20 W 17   Clear   34 28     78% 23            
May 17 07:00 NW 15   Clear   33 28     79% 23            
May 17 06:50 NW 16   Clear   33 29     85% 22            
May 17 06:30 W 11   Clear   32 29     88% 23            
May 17 06:20 W 15   Clear   32 29     88% 22            
May 17 06:00 NW 11   Clear   33 29     85% 24            
May 17 05:50 W 11   Clear   32 30     92% 24            
May 17 05:30 W 12   Clear   32 30     91% 23            
May 17 05:20 W 10   Clear   32 30     92% 24            
May 17 05:00 W 12   Clear   32 30     91% 23            
May 17 04:50 W 15   Clear   32 29     88% 22            
May 17 04:30 W 9   Clear   32 29     87% 25            
May 17 04:20 NW 8   Clear   33 29     85% 25            
May 17 04:00 W 11   Clear   32 28     83% 24            
May 17 03:50 W 11   Clear   32 28     84% 24            
May 17 03:30 W 9   Clear   32 28     85% 25            
May 17 03:20 W 9   Clear   32 28     83% 25            
Notice The following observation data may not be complete
May 17 03:00 SW 8   Clear            %              
May 17 02:50 SW 8   Clear   33 29     85% 26            
May 17 02:30 SW 6   Clear   33 28     83% 27            
May 17 02:20 SE 8   Clear   34 28     79% 27            
May 17 02:00 S 6   Clear   33 29     82% 28            
May 17 01:50 N 4   Clear   33 29     85% 30            
May 17 01:30 W 8   Clear   34 30     86% 27            
May 17 01:20 W 12   Clear   34 30     84% 26            
May 17 01:00 W 11   Clear   34 30     85% 26            
May 17 00:50 SW 9   Clear   34 30     85% 26            
May 17 00:30 S 4   Clear   34 29     82% 30            
May 17 00:20 S 4   Clear   34 29     80% 31            
May 17 00:00 NW 3   Clear   35 27     73%              
May 16 23:50 W 6   Clear   36 27     69% 31            
May 16 23:30 N 2   Clear   36 26     69%              
May 16 23:20 SE 3   Clear   37 26     65%              
May 16 23:00 SE 7   Clear   37 27     66% 32            
May 16 22:50 W 3   Clear   37 28     68%              
May 16 22:30 N 5   Clear   39 28     65% 35            
May 16 22:20 N 3   Clear   37 31     78%              
May 16 22:00 SE 6   Clear   36 31     81% 31            
May 16 21:50 SE 3   Clear   36 31     81%              
May 16 21:30 N 8   Clear   38 30     74% 32            
May 16 21:20 NW 6   Clear   37 31     76% 33            
May 16 21:00 NW 8   Clear   37 31     78% 31            
May 16 20:50 NW 12   Clear   36 32     82% 28            
May 16 20:30 W 8   Clear   36 32     83% 30            
May 16 20:20 W 8   Clear   37 32     81% 31            
May 16 20:00 NW 9   Clear   38 30     71% 32            
May 16 19:50 W 9   Clear   39 29     66% 33            
May 16 19:30 W 10   Clear   39 30     70% 32            
May 16 19:20 NW 10   Clear   39 30     70% 32            
May 16 19:00 W 8   Clear   38 32     77% 32            
May 16 18:50 NW 6   Clear   40 30     68% 36            
May 16 18:30 NW 8   Clear   39 33     78% 33            
May 16 18:20 W 11   Clear   38 33     80% 31            
May 16 18:00 NW 8   Clear   41 34     77% 36            
May 16 17:50 NW 9   Clear   43 34     71% 38            
May 16 17:30 W 9   Clear   47 24     40% 43            
May 16 17:20 W 6   Clear   47 26     45% 44            
May 16 17:00 W 6   Clear   47 24     40% 44            
May 16 16:50 W 8   Clear   47 22     37% 43            
May 16 16:30 W 6   Clear   47 25     41% 44            
May 16 16:20 SW 7   Clear   47 24     41% 44            
May 16 16:00 NW 7   Clear   48 20     32% 45            
May 16 15:50 W 7   Clear   47 23     39% 44            
May 16 15:40 SW 8   Clear   47 25     42% 43            
May 16 15:30 W 7   Clear   47 26     44% 44            
May 16 15:10 W 8   Clear   47 28     48% 43            
May 16 15:00 W 7   Clear   47 28     48% 44            
May 16 14:40 W 8   Clear   47 26     43% 43            
May 16 14:30 W 8   Clear   47 27     44% 44            
May 16 14:10 W 6   Clear   48 30     49% 45            
May 16 14:00 W 7   Clear   47 29     49% 44            
May 16 13:40 W 9   Clear   48 28     46% 44            
May 16 13:30 W 6   Clear   48 31     52% 45            
May 16 13:10 SE 3   Clear   47 31     53%              
May 16 13:00 SW 4   Clear   47 28     48% 46            
May 16 12:40 SW 4   Clear   46 35     65% 44            
May 16 12:30 SW 1   Clear   46 36     68%              
May 16 12:10 W 4   Clear   45 37     73% 43            
May 16 12:00 SW 5   Clear   44 38     80% 41            
May 16 11:40 W 3   Clear   44 36     76%              
May 16 11:30 W 4   Clear   44 37     76% 42            
May 16 11:10 W 6   Clear   43 38     83% 39            
May 16 11:00 SW 4   Clear   42 39     89% 39            
May 16 10:40 W 8   Clear   41 38     89% 36            
May 16 10:30 W 5   Clear   41 38     88% 38            
May 16 10:10 W 5   Clear   41 39     92% 38            
May 16 10:00 W 1   Clear   42 37     83%              
May 16 09:40 W 5   Clear   40 37     89% 37            
May 16 09:30 W 4   Clear   41 38     92% 38            
May 16 09:10 W 7   Clear   40 39     95% 35            
May 16 09:00 W 8   Clear   40 39     96% 34            
May 16 08:40 W 8   Clear   40 39     96% 34            
May 16 08:30 W 9   Clear   39 38     95% 33            
May 16 08:10 W 8   Clear   40 38     93% 34            
May 16 08:00 W 8   Clear   39 38     94% 34            
May 16 07:40 W 8   Clear   39 37     95% 33            
May 16 07:30 W 6   Clear   39 37     95% 34            
May 16 07:10 W 6   Clear   38 37     96% 34            
May 16 07:00 W 5   Clear   38 38     97% 35            
May 16 06:40 W 6   Clear   38 38     98% 33            
May 16 06:30 W 6   Clear   38 38     98% 33            
May 16 06:10 W 7   Clear   38 38     99% 33            
May 16 06:00 W 7   Clear   38 38     99% 33            
May 16 05:40 W 9   Clear   38 38     99% 32            
May 16 05:30 W 6   Clear   38 38     99% 33            
May 16 05:10 W 7   Clear   38 38     99% 33            
May 16 05:00 W 7   Clear   38 38     99% 33            
May 16 04:40 W 6   Clear   38 38     99% 34            
May 16 04:30 W 6   Clear   38 38     98% 34            
May 16 04:10 W 4   Clear   38 38     98% 36            
May 16 04:00 W 5   Clear   39 38     98% 35            
May 16 03:40 W 7   Clear   38 38     98% 33            
May 16 03:30 SW 4   Clear   39 38     97% 36            
May 16 03:10 SW 4   Clear   39 38     97% 36            
May 16 03:00 SW 4   Clear   39 38     97% 36            
May 16 02:40 S 3   Clear   39 38     97%              
May 16 02:30 SE 1   Clear   39 38     97%              
May 16 02:10 S 3   Clear   39 38     96%              
May 16 02:00 S 3   Clear   40 38     95%              
May 16 01:40 S 3   Clear   40 38     92%              
May 16 01:30 S 3   Clear   40 38     91%              
May 16 01:10 SW 3   Clear   41 38     88%              
May 16 01:00 S 3   Clear   41 38     88%              
May 16 00:40 S 5   Clear   41 38     88% 38            
May 15 09:50 E 3   Clear   60        %              
Notice The following observation data may not be complete
May 15 05:50 NE 1   Clear            %              
Notice The following observation data may not be complete
May 15 05:10 E 1   Clear            %              
Notice The following observation data may not be complete
May 15 04:20 N 1   Clear            %              
Notice The following observation data may not be complete
May 15 02:50     Clear            %              
May 14 21:50 NE 4   Clear   55        %              
May 14 16:10 E 3   Clear   64        %              
May 14 09:40 NE 6   Clear   57        %              
May 14 08:50 NE 5   Clear   55        %              
May 14 00:50 NE 7   Clear   51        %              
Notice The following observation data may not be complete
May 13 23:20     Clear            %              
May 13 22:20 NE 10   Clear   53        %              
May 13 19:20 E 12   Clear   58        %              
May 13 16:50 E 13   Clear   61        %              
May 13 12:10 E 14   Clear   57        %              
May 12 21:10 NE 10   Clear   49        % 45            
Notice The following observation data may not be complete
May 12 15:40     Clear            %              
May 12 08:20     Clear   43        %              
Notice The following observation data may not be complete
May 12 04:10     Clear            %              
May 12 02:10 NE 14   Clear   40        % 32            
May 12 01:20 NE 12   Clear   41        % 35            
Notice The following observation data may not be complete
May 11 23:50     Clear            %              
May 11 23:20 NE 14   Clear   41        % 34            
May 11 21:40 NE 9   Clear   41        % 36            
May 11 12:20 NE 14   Clear   41        % 34            
Jun 12 00:00 NE 3   Clear   40 32     73%              
Jun 11 21:10 N 8   Clear   40 33     74% 35            
Jun 11 20:00 N 8   Clear   42 32     69% 37            
Jun 11 13:30 NE 11   Clear   43 28     55% 37            
Jun 11 12:40 E 12   Clear   41 30     66% 34            
Jun 11 12:10 NE 16   Clear   41 30     66% 32            
Jun 11 00:10     Clear   31 29     91%              
Jun 10 22:40     Clear   31 29     93%              
Jun 10 03:00 W 8   Clear   31 30     96% 24            
Jun 09 16:10 W 11   Clear   37 32     83% 30            
Jun 09 07:30 W 11   Clear   36 29     76% 28            
Jun 09 01:30 W 12   Clear   35 31     86% 26            
Jun 09 01:00 W 11   Clear   35 31     87% 26            
Jun 08 17:20 W 13   Clear   42 37     83% 35            
Jun 08 13:30 W 17   Clear   42 39     89% 34            
Jun 08 09:10 W 8   Clear   42 42     100% 38            
Jun 07 20:30 W 9   Clear   58 45     62%              
Jun 07 11:50 SW 11   Clear   62 43     49%              
Jun 07 06:00 NE 3   Clear   57 36     45%              
Notice The following observation data may not be complete
Jun 06 03:50     Clear            %              
Jun 06 01:10 NE 4   Clear   51 27     38%              
Notice The following observation data may not be complete
Jun 06 00:20     Clear            %              
Jun 05 20:20 NE 9   Clear   55 24     30%              
Jun 05 18:20 E 8   Clear   60 24     25%              
Jun 05 18:10 NE 8   Clear   60 24     25%              
Jun 05 12:20 NE 2   Clear   59        %              
Jun 05 12:10 SE 3   Clear   57        %